createdAt,value
2023-04-14T00:00:40.000Z,980.38
2023-04-14T00:05:33.000Z,980.38
2023-04-14T00:10:27.000Z,980.47
2023-04-14T00:15:21.000Z,980.25
2023-04-14T00:20:15.000Z,980.33
2023-04-14T00:25:12.000Z,980.29
2023-04-14T00:30:03.000Z,980.23
2023-04-14T00:34:57.000Z,980.33
2023-04-14T00:39:52.000Z,980.45
2023-04-14T00:44:43.000Z,980.52
2023-04-14T00:49:38.000Z,980.54
2023-04-14T00:54:29.000Z,980.55
2023-04-14T00:59:24.000Z,980.49
2023-04-14T01:04:18.000Z,980.66
2023-04-14T01:09:12.000Z,980.65
2023-04-14T01:14:09.000Z,980.69
2023-04-14T01:19:00.000Z,980.63
2023-04-14T01:23:54.000Z,980.70
2023-04-14T01:28:48.000Z,980.70
2023-04-14T01:33:42.000Z,980.66
2023-04-14T01:38:36.000Z,980.63
2023-04-14T01:43:30.000Z,980.65
2023-04-14T01:48:24.000Z,980.58
2023-04-14T01:53:18.000Z,980.59
2023-04-14T01:58:12.000Z,980.64
2023-04-14T02:03:06.000Z,980.62
2023-04-14T02:07:58.000Z,980.67
2023-04-14T02:12:52.000Z,980.69
2023-04-14T02:17:46.000Z,980.77
2023-04-14T02:22:40.000Z,980.79
2023-04-14T02:27:34.000Z,980.86
2023-04-14T02:32:29.000Z,980.86
2023-04-14T02:37:21.000Z,980.92
2023-04-14T02:42:13.000Z,980.91
2023-04-14T02:47:07.000Z,980.94
2023-04-14T02:52:00.000Z,981.02
2023-04-14T02:56:54.000Z,981.03
2023-04-14T03:01:48.000Z,981.07
2023-04-14T03:06:44.000Z,981.12
2023-04-14T03:11:35.000Z,981.14
2023-04-14T03:16:29.000Z,981.19
2023-04-14T03:21:24.000Z,981.11
2023-04-14T03:26:18.000Z,981.10
2023-04-14T03:31:12.000Z,981.16
2023-04-14T03:36:06.000Z,981.08
2023-04-14T03:40:59.000Z,981.18
2023-04-14T03:45:53.000Z,981.12
2023-04-14T03:50:47.000Z,981.06
2023-04-14T03:55:41.000Z,981.12
2023-04-14T04:00:34.000Z,981.08
2023-04-14T04:05:29.000Z,981.12
2023-04-14T04:10:23.000Z,981.14
2023-04-14T04:15:17.000Z,981.13
2023-04-14T04:20:11.000Z,981.20
2023-04-14T04:25:05.000Z,981.24
2023-04-14T04:29:58.000Z,981.16
2023-04-14T04:34:52.000Z,981.19
2023-04-14T04:39:46.000Z,981.21
2023-04-14T04:44:40.000Z,981.26
2023-04-14T04:49:34.000Z,981.30
2023-04-14T04:54:27.000Z,981.32
2023-04-14T04:59:21.000Z,981.38
2023-04-14T05:04:15.000Z,981.49
2023-04-14T05:09:09.000Z,981.52
2023-04-14T05:14:03.000Z,981.51
2023-04-14T05:18:57.000Z,981.63
2023-04-14T05:23:48.000Z,981.69
2023-04-14T05:28:43.000Z,981.62
2023-04-14T05:33:37.000Z,981.54
2023-04-14T05:38:31.000Z,981.57
2023-04-14T05:43:26.000Z,981.58
2023-04-14T05:48:19.000Z,981.53
2023-04-14T05:53:12.000Z,981.52
2023-04-14T05:58:07.000Z,981.59
2023-04-14T06:03:00.000Z,981.47
2023-04-14T06:07:53.000Z,981.50
2023-04-14T06:12:46.000Z,981.52
2023-04-14T06:17:40.000Z,981.39
2023-04-14T06:22:34.000Z,981.41
2023-04-14T06:27:28.000Z,981.28
2023-04-14T06:32:21.000Z,981.28
2023-04-14T06:37:15.000Z,981.18
2023-04-14T06:42:09.000Z,981.12
2023-04-14T06:47:03.000Z,981.06
2023-04-14T06:51:58.000Z,981.12
2023-04-14T06:56:49.000Z,981.00
2023-04-14T07:01:43.000Z,981.02
2023-04-14T07:06:38.000Z,980.97
2023-04-14T07:11:31.000Z,981.08
2023-04-14T07:16:26.000Z,981.09
2023-04-14T07:21:20.000Z,980.97
2023-04-14T07:26:14.000Z,981.07
2023-04-14T07:31:09.000Z,981.10
2023-04-14T07:36:03.000Z,981.10
2023-04-14T07:40:57.000Z,981.06
2023-04-14T07:45:50.000Z,981.07
2023-04-14T07:50:45.000Z,981.00
2023-04-14T07:55:39.000Z,980.95
2023-04-14T08:00:32.000Z,980.90
2023-04-14T08:05:27.000Z,980.90
2023-04-14T08:10:20.000Z,980.93
2023-04-14T08:15:15.000Z,980.87
2023-04-14T08:20:09.000Z,980.81
2023-04-14T08:25:06.000Z,980.84
2023-04-14T08:29:58.000Z,980.80
2023-04-14T08:34:52.000Z,980.80
2023-04-14T08:39:46.000Z,980.65
2023-04-14T08:44:41.000Z,980.66
2023-04-14T08:49:35.000Z,980.72
2023-04-14T08:54:30.000Z,980.63
2023-04-14T08:59:24.000Z,980.64
2023-04-14T09:04:18.000Z,980.57
2023-04-14T10:47:11.000Z,979.69
2023-04-14T10:52:06.000Z,979.66
2023-04-14T10:57:01.000Z,979.62
2023-04-14T11:01:56.000Z,979.60
2023-04-14T11:06:50.000Z,979.45
2023-04-14T11:11:42.000Z,979.47
2023-04-14T11:16:35.000Z,979.46
2023-04-14T11:21:30.000Z,979.41
2023-04-14T11:26:29.000Z,979.28
2023-04-14T11:31:23.000Z,979.38
2023-04-14T11:36:16.000Z,979.45
2023-04-14T11:41:11.000Z,979.27
2023-04-14T11:46:02.000Z,979.17
2023-04-14T11:50:55.000Z,979.16
2023-04-14T11:55:50.000Z,979.15
2023-04-14T12:00:45.000Z,979.10
2023-04-14T12:05:41.000Z,979.03
2023-04-14T12:10:38.000Z,978.93
2023-04-14T12:15:29.000Z,978.97
2023-04-14T12:20:24.000Z,978.87
2023-04-14T12:25:18.000Z,978.83
2023-04-14T12:30:12.000Z,978.64
2023-04-14T12:35:05.000Z,978.60
2023-04-14T12:39:57.000Z,978.57
2023-04-14T12:44:52.000Z,978.53
2023-04-14T12:49:47.000Z,978.54
2023-04-14T12:54:41.000Z,978.47
2023-04-14T12:59:35.000Z,978.51
2023-04-14T13:04:27.000Z,978.42
2023-04-14T13:09:20.000Z,978.32
2023-04-14T13:14:13.000Z,978.30
2023-04-14T13:19:07.000Z,978.33
2023-04-14T13:24:01.000Z,978.33
2023-04-14T13:28:54.000Z,978.26
2023-04-14T13:33:47.000Z,978.24
2023-04-14T13:38:40.000Z,978.19
2023-04-14T13:43:34.000Z,978.17
2023-04-14T13:48:29.000Z,978.14
2023-04-14T13:53:23.000Z,978.23
2023-04-14T13:58:17.000Z,978.23
2023-04-14T14:03:13.000Z,978.09
2023-04-14T14:08:09.000Z,978.10
2023-04-14T14:13:03.000Z,978.04
2023-04-14T14:17:57.000Z,978.04
2023-04-14T14:22:52.000Z,977.94
2023-04-14T14:27:47.000Z,978.01
2023-04-14T14:32:43.000Z,977.87
2023-04-14T14:37:35.000Z,977.90
2023-04-14T14:42:29.000Z,977.86
2023-04-14T14:47:22.000Z,977.80
2023-04-14T14:52:14.000Z,977.82
2023-04-14T14:57:09.000Z,977.75
2023-04-14T15:02:07.000Z,977.68
2023-04-14T15:06:58.000Z,977.72
2023-04-14T15:11:50.000Z,977.68
2023-04-14T15:16:42.000Z,977.72
2023-04-14T15:21:39.000Z,977.61
2023-04-14T15:26:31.000Z,977.63
2023-04-14T15:31:27.000Z,977.58
2023-04-14T15:36:22.000Z,977.65
2023-04-14T15:41:15.000Z,977.57
2023-04-14T15:46:10.000Z,977.58
2023-04-14T15:51:05.000Z,977.65
2023-04-14T15:56:00.000Z,977.51
2023-04-14T16:00:54.000Z,977.52
2023-04-14T16:05:46.000Z,977.54
2023-04-14T16:10:39.000Z,977.43
2023-04-14T16:15:31.000Z,977.51
2023-04-14T16:20:24.000Z,977.50
2023-04-14T16:25:14.000Z,977.64
2023-04-14T16:30:09.000Z,977.54
2023-04-14T16:35:04.000Z,977.60
2023-04-14T16:39:59.000Z,977.55
2023-04-14T16:44:53.000Z,977.54
2023-04-14T16:49:45.000Z,977.53
2023-04-14T16:54:38.000Z,977.60
2023-04-14T16:59:32.000Z,977.54
2023-04-14T17:04:26.000Z,977.57
2023-04-14T17:09:19.000Z,977.61
2023-04-14T17:14:13.000Z,977.56
2023-04-14T17:19:07.000Z,977.56
2023-04-14T17:24:01.000Z,977.59
2023-04-14T17:28:56.000Z,977.62
2023-04-14T17:33:48.000Z,977.69
2023-04-14T17:38:44.000Z,977.60
2023-04-14T17:43:33.000Z,977.60
2023-04-14T17:48:28.000Z,977.63
2023-04-14T17:53:23.000Z,977.64
2023-04-14T17:58:16.000Z,977.77
2023-04-14T18:03:09.000Z,977.70
2023-04-14T18:08:03.000Z,977.69
2023-04-14T18:12:57.000Z,977.63
2023-04-14T18:17:50.000Z,977.68
2023-04-14T18:22:44.000Z,977.82
2023-04-14T18:27:38.000Z,977.74
2023-04-14T18:32:32.000Z,977.72
2023-04-14T18:37:26.000Z,977.75
2023-04-14T18:42:20.000Z,977.82
2023-04-14T18:47:15.000Z,977.86
2023-04-14T18:52:09.000Z,977.97
2023-04-14T18:57:05.000Z,977.94
2023-04-14T19:01:58.000Z,977.95
2023-04-14T19:06:52.000Z,978.03
2023-04-14T19:11:45.000Z,978.15
2023-04-14T19:16:39.000Z,978.14
2023-04-14T19:21:33.000Z,978.22
2023-04-14T19:26:27.000Z,978.20
2023-04-14T19:31:22.000Z,978.20
2023-04-14T19:36:15.000Z,978.23
2023-04-14T19:41:09.000Z,978.23
2023-04-14T19:46:03.000Z,978.24
2023-04-14T19:50:56.000Z,978.22
2023-04-14T19:55:50.000Z,978.14
2023-04-14T20:00:45.000Z,978.12
2023-04-14T20:05:39.000Z,978.24
2023-04-14T20:10:32.000Z,978.18
2023-04-14T20:15:27.000Z,978.10
2023-04-14T20:20:21.000Z,978.21
2023-04-14T20:25:15.000Z,978.22
2023-04-14T20:30:08.000Z,978.19
2023-04-14T20:35:03.000Z,978.23
2023-04-14T20:39:57.000Z,978.20
2023-04-14T20:44:50.000Z,978.29
2023-04-14T20:49:44.000Z,978.24
2023-04-14T20:54:38.000Z,978.29
2023-04-14T20:59:32.000Z,978.30
2023-04-14T21:04:26.000Z,978.24
2023-04-14T21:09:19.000Z,978.20
2023-04-14T21:14:12.000Z,978.26
2023-04-14T21:19:06.000Z,978.34
2023-04-14T21:23:58.000Z,978.37
2023-04-14T21:28:52.000Z,978.32
2023-04-14T21:33:43.000Z,978.29
2023-04-14T21:38:37.000Z,978.28
2023-04-14T21:43:28.000Z,978.41
2023-04-14T21:48:22.000Z,978.34
2023-04-14T21:53:16.000Z,978.33
2023-04-14T21:58:07.000Z,978.34
2023-04-14T22:03:02.000Z,978.38
2023-04-14T22:07:56.000Z,978.33
2023-04-14T22:12:49.000Z,978.35
2023-04-14T22:17:43.000Z,978.37
2023-04-14T22:22:38.000Z,978.33
2023-04-14T22:27:31.000Z,978.37
2023-04-14T22:32:25.000Z,978.36
2023-04-14T22:37:19.000Z,978.42
2023-04-14T22:42:13.000Z,978.47
2023-04-14T22:47:07.000Z,978.43
2023-04-14T22:52:01.000Z,978.46
2023-04-14T22:56:55.000Z,978.48
2023-04-14T23:01:49.000Z,978.42
2023-04-14T23:06:41.000Z,978.41
2023-04-14T23:11:36.000Z,978.57
2023-04-14T23:16:30.000Z,978.47
2023-04-14T23:21:24.000Z,978.55
2023-04-14T23:26:17.000Z,978.57
2023-04-14T23:31:11.000Z,978.62
2023-04-14T23:36:05.000Z,978.66
2023-04-14T23:40:59.000Z,978.70
2023-04-14T23:45:53.000Z,978.64
2023-04-14T23:50:44.000Z,978.62
2023-04-14T23:55:38.000Z,978.65
